Florida, Colorado
Current Conditions -  °F | °C
As of 5:52 AM on Monday 22 Dec 2014 (Local Time) from KALS Reporting Station
Broken Clouds Broken Clouds  
Wind Chill: 19°   Ceiling: 12000
Heat Index: 26°   Visibility: 10mi
Dew Point: 25°   Wind: 6mph
Humidity: 96%   Direction: 110°ESE
Pressure: 29.78"   Gusts: NA
Location:  37.1816°N, 106.262°W
Report Text: KALS 221252Z AUTO 11005KT 10SM FEW070 SCT095 BKN120 M03/M04 A2978 RMK AO2 SLP085 T10331039
Loading
Personal Weather Stations






























Interactive Weather Map New forecast layout! Learn more

10-Day Weather Forecast

Advertisements
Track Severe Weather on mobile